sensor_id;sensor_type;location;lat;lon;timestamp;pressure;altitude;pressure_sealevel;temperature;humidity
55801;BME280;41730;51.960;20.158;2023-07-13T00:02:24;99735.16;;;21.15;73.50
55801;BME280;41730;51.960;20.158;2023-07-13T00:04:57;99737.67;;;21.11;73.54
55801;BME280;41730;51.960;20.158;2023-07-13T00:07:28;99736.31;;;21.05;73.91
55801;BME280;41730;51.960;20.158;2023-07-13T00:10:01;99732.67;;;21.17;73.57
55801;BME280;41730;51.960;20.158;2023-07-13T00:12:38;99727.41;;;21.25;73.16
55801;BME280;41730;51.960;20.158;2023-07-13T00:15:19;99723.02;;;21.22;73.08
55801;BME280;41730;51.960;20.158;2023-07-13T00:17:53;99720.22;;;21.07;73.52
55801;BME280;41730;51.960;20.158;2023-07-13T00:20:26;99717.55;;;21.13;73.47
55801;BME280;41730;51.960;20.158;2023-07-13T00:22:57;99712.52;;;21.17;73.36
55801;BME280;41730;51.960;20.158;2023-07-13T00:25:29;99719.88;;;21.21;73.24
55801;BME280;41730;51.960;20.158;2023-07-13T00:28:02;99721.44;;;21.24;73.04
55801;BME280;41730;51.960;20.158;2023-07-13T00:30:33;99720.71;;;21.21;73.22
55801;BME280;41730;51.960;20.158;2023-07-13T00:33:05;99713.66;;;21.20;72.99
55801;BME280;41730;51.960;20.158;2023-07-13T00:35:46;99715.49;;;21.09;73.48
55801;BME280;41730;51.960;20.158;2023-07-13T00:38:18;99712.58;;;21.05;73.68
55801;BME280;41730;51.960;20.158;2023-07-13T00:40:50;99719.69;;;21.13;73.41
55801;BME280;41730;51.960;20.158;2023-07-13T00:43:26;99719.71;;;21.20;73.15
55801;BME280;41730;51.960;20.158;2023-07-13T00:46:28;99719.84;;;21.22;72.98
55801;BME280;41730;51.960;20.158;2023-07-13T00:49:02;99719.33;;;21.08;73.23
55801;BME280;41730;51.960;20.158;2023-07-13T00:51:34;99722.94;;;21.00;73.72
55801;BME280;41730;51.960;20.158;2023-07-13T00:54:10;99726.96;;;21.12;72.86
55801;BME280;41730;51.960;20.158;2023-07-13T00:56:48;99724.58;;;21.14;72.94
55801;BME280;41730;51.960;20.158;2023-07-13T00:59:21;99727.46;;;21.16;72.75
55801;BME280;41730;51.960;20.158;2023-07-13T01:01:53;99730.80;;;21.12;72.95
55801;BME280;41730;51.960;20.158;2023-07-13T01:04:27;99726.27;;;21.03;73.32
55801;BME280;41730;51.960;20.158;2023-07-13T01:06:59;99726.81;;;21.04;73.19
55801;BME280;41730;51.960;20.158;2023-07-13T01:09:31;99726.48;;;21.01;73.18
55801;BME280;41730;51.960;20.158;2023-07-13T01:12:03;99732.12;;;20.97;73.48
55801;BME280;41730;51.960;20.158;2023-07-13T01:14:34;99731.05;;;21.05;73.22
55801;BME280;41730;51.960;20.158;2023-07-13T01:17:07;99739.90;;;21.12;72.95
55801;BME280;41730;51.960;20.158;2023-07-13T01:19:42;99740.87;;;21.10;72.86
55801;BME280;41730;51.960;20.158;2023-07-13T01:22:16;99743.39;;;20.98;73.18
55801;BME280;41730;51.960;20.158;2023-07-13T01:24:49;99744.66;;;21.00;73.25
55801;BME280;41730;51.960;20.158;2023-07-13T01:27:24;99739.48;;;21.01;73.08
55801;BME280;41730;51.960;20.158;2023-07-13T01:29:56;99743.80;;;20.80;73.83
55801;BME280;41730;51.960;20.158;2023-07-13T01:32:33;99738.95;;;20.84;73.90
55801;BME280;41730;51.960;20.158;2023-07-13T01:35:07;99725.41;;;20.95;73.34
55801;BME280;41730;51.960;20.158;2023-07-13T01:37:39;99725.51;;;20.98;73.28
55801;BME280;41730;51.960;20.158;2023-07-13T01:40:13;99728.73;;;21.03;73.13
55801;BME280;41730;51.960;20.158;2023-07-13T01:42:46;99730.05;;;21.08;72.94
55801;BME280;41730;51.960;20.158;2023-07-13T01:45:17;99732.36;;;21.12;72.86
55801;BME280;41730;51.960;20.158;2023-07-13T01:47:49;99728.98;;;21.06;73.03
55801;BME280;41730;51.960;20.158;2023-07-13T01:50:21;99727.73;;;20.94;73.40
55801;BME280;41730;51.960;20.158;2023-07-13T01:52:52;99723.65;;;21.00;73.21
55801;BME280;41730;51.960;20.158;2023-07-13T01:55:24;99726.33;;;21.05;73.00
55801;BME280;41730;51.960;20.158;2023-07-13T01:57:56;99733.21;;;21.07;72.78
55801;BME280;41730;51.960;20.158;2023-07-13T02:00:28;99735.30;;;20.99;72.97
55801;BME280;41730;51.960;20.158;2023-07-13T02:03:00;99736.73;;;21.09;72.66
55801;BME280;41730;51.960;20.158;2023-07-13T02:05:32;99732.86;;;20.99;72.74
55801;BME280;41730;51.960;20.158;2023-07-13T02:08:03;99737.99;;;20.86;73.10
55801;BME280;41730;51.960;20.158;2023-07-13T02:10:36;99735.79;;;20.83;73.05
55801;BME280;41730;51.960;20.158;2023-07-13T02:13:08;99732.91;;;20.70;73.31
55801;BME280;41730;51.960;20.158;2023-07-13T02:15:41;99731.01;;;20.71;73.19
55801;BME280;41730;51.960;20.158;2023-07-13T02:18:14;99734.61;;;20.59;73.46
55801;BME280;41730;51.960;20.158;2023-07-13T02:20:47;99737.89;;;20.48;73.83
55801;BME280;41730;51.960;20.158;2023-07-13T02:23:19;99735.39;;;20.59;73.62
55801;BME280;41730;51.960;20.158;2023-07-13T02:25:52;99733.17;;;20.60;73.43
55801;BME280;41730;51.960;20.158;2023-07-13T02:28:25;99731.69;;;20.45;73.83
55801;BME280;41730;51.960;20.158;2023-07-13T02:31:03;99736.46;;;20.26;74.61
55801;BME280;41730;51.960;20.158;2023-07-13T02:33:35;99745.01;;;20.28;74.70
55801;BME280;41730;51.960;20.158;2023-07-13T02:36:07;99734.86;;;20.32;74.61
55801;BME280;41730;51.960;20.158;2023-07-13T02:38:39;99734.04;;;20.32;74.42
55801;BME280;41730;51.960;20.158;2023-07-13T02:41:11;99732.02;;;20.29;74.47
55801;BME280;41730;51.960;20.158;2023-07-13T02:43:43;99735.38;;;20.40;73.98
55801;BME280;41730;51.960;20.158;2023-07-13T02:46:14;99735.34;;;20.41;73.82
55801;BME280;41730;51.960;20.158;2023-07-13T02:48:46;99731.39;;;20.44;73.80
55801;BME280;41730;51.960;20.158;2023-07-13T02:51:18;99730.90;;;20.57;73.30
55801;BME280;41730;51.960;20.158;2023-07-13T02:53:49;99735.58;;;20.66;73.03
55801;BME280;41730;51.960;20.158;2023-07-13T02:56:25;99738.23;;;20.66;72.96
55801;BME280;41730;51.960;20.158;2023-07-13T02:58:57;99741.47;;;20.57;72.92
55801;BME280;41730;51.960;20.158;2023-07-13T03:01:28;99735.59;;;20.44;73.26
55801;BME280;41730;51.960;20.158;2023-07-13T03:04:00;99738.33;;;20.36;73.60
55801;BME280;41730;51.960;20.158;2023-07-13T03:06:34;99737.48;;;20.45;73.23
55801;BME280;41730;51.960;20.158;2023-07-13T03:09:06;99739.95;;;20.58;72.84
55801;BME280;41730;51.960;20.158;2023-07-13T03:11:38;99737.91;;;20.65;72.49
55801;BME280;41730;51.960;20.158;2023-07-13T03:14:10;99736.06;;;20.66;72.12
55801;BME280;41730;51.960;20.158;2023-07-13T03:16:41;99737.50;;;20.52;72.56
55801;BME280;41730;51.960;20.158;2023-07-13T03:19:13;99732.72;;;20.50;72.80
55801;BME280;41730;51.960;20.158;2023-07-13T03:21:45;99728.45;;;20.49;73.28
55801;BME280;41730;51.960;20.158;2023-07-13T03:24:17;99719.90;;;20.73;73.08
55801;BME280;41730;51.960;20.158;2023-07-13T03:26:52;99713.61;;;21.05;72.95
55801;BME280;41730;51.960;20.158;2023-07-13T03:29:28;99716.02;;;21.46;72.82
55801;BME280;41730;51.960;20.158;2023-07-13T03:32:02;99719.95;;;22.00;72.07
55801;BME280;41730;51.960;20.158;2023-07-13T03:34:34;99717.41;;;22.57;70.94
55801;BME280;41730;51.960;20.158;2023-07-13T03:37:06;99715.80;;;22.95;70.37
55801;BME280;41730;51.960;20.158;2023-07-13T03:39:38;99715.45;;;23.52;69.18
55801;BME280;41730;51.960;20.158;2023-07-13T03:42:10;99726.16;;;24.01;68.10
55801;BME280;41730;51.960;20.158;2023-07-13T03:44:42;99731.29;;;24.32;67.34
55801;BME280;41730;51.960;20.158;2023-07-13T03:47:19;99736.94;;;24.54;66.88
55801;BME280;41730;51.960;20.158;2023-07-13T03:49:51;99740.67;;;24.70;66.24
55801;BME280;41730;51.960;20.158;2023-07-13T03:52:23;99741.27;;;24.79;66.15
55801;BME280;41730;51.960;20.158;2023-07-13T03:54:55;99742.64;;;24.76;66.07
55801;BME280;41730;51.960;20.158;2023-07-13T03:57:26;99742.85;;;24.63;65.60
55801;BME280;41730;51.960;20.158;2023-07-13T03:59:58;99745.92;;;24.37;65.59
55801;BME280;41730;51.960;20.158;2023-07-13T04:05:03;99752.17;;;24.06;65.04
55801;BME280;41730;51.960;20.158;2023-07-13T04:07:35;99748.70;;;23.79;65.25
55801;BME280;41730;51.960;20.158;2023-07-13T04:10:08;99751.16;;;23.52;65.64
55801;BME280;41730;51.960;20.158;2023-07-13T04:12:40;99752.38;;;23.27;66.02
55801;BME280;41730;51.960;20.158;2023-07-13T04:15:12;99752.29;;;23.13;66.24
55801;BME280;41730;51.960;20.158;2023-07-13T04:17:43;99759.18;;;23.04;66.33
55801;BME280;41730;51.960;20.158;2023-07-13T04:20:15;99759.68;;;22.90;66.46
55801;BME280;41730;51.960;20.158;2023-07-13T04:22:47;99761.64;;;22.70;66.97
55801;BME280;41730;51.960;20.158;2023-07-13T04:25:19;99762.52;;;22.57;67.38
55801;BME280;41730;51.960;20.158;2023-07-13T04:27:51;99765.52;;;22.29;67.95
55801;BME280;41730;51.960;20.158;2023-07-13T04:30:23;99769.23;;;22.15;68.57
55801;BME280;41730;51.960;20.158;2023-07-13T04:32:55;99773.52;;;22.07;68.69
55801;BME280;41730;51.960;20.158;2023-07-13T04:35:27;99782.54;;;22.04;68.86
55801;BME280;41730;51.960;20.158;2023-07-13T04:37:58;99786.54;;;22.04;68.74
55801;BME280;41730;51.960;20.158;2023-07-13T04:40:30;99792.88;;;21.95;69.06
55801;BME280;41730;51.960;20.158;2023-07-13T04:43:02;99797.77;;;21.87;69.31
55801;BME280;41730;51.960;20.158;2023-07-13T04:45:34;99794.81;;;21.83;69.45
55801;BME280;41730;51.960;20.158;2023-07-13T04:48:07;99799.71;;;21.84;69.60
55801;BME280;41730;51.960;20.158;2023-07-13T04:50:39;99798.73;;;21.83;69.64
55801;BME280;41730;51.960;20.158;2023-07-13T04:53:11;99797.09;;;21.75;70.07
55801;BME280;41730;51.960;20.158;2023-07-13T04:55:42;99803.55;;;21.79;70.23
55801;BME280;41730;51.960;20.158;2023-07-13T04:58:14;99796.33;;;21.81;70.19
55801;BME280;41730;51.960;20.158;2023-07-13T05:00:46;99788.44;;;21.79;70.45
55801;BME280;41730;51.960;20.158;2023-07-13T05:03:18;99787.11;;;21.81;70.62
55801;BME280;41730;51.960;20.158;2023-07-13T05:05:58;99784.80;;;21.81;70.97
55801;BME280;41730;51.960;20.158;2023-07-13T05:08:30;99786.23;;;22.00;70.52
55801;BME280;41730;51.960;20.158;2023-07-13T05:11:03;99793.01;;;22.01;70.62
55801;BME280;41730;51.960;20.158;2023-07-13T05:13:35;99802.52;;;22.10;70.52
55801;BME280;41730;51.960;20.158;2023-07-13T05:16:07;99800.73;;;22.23;70.16
55801;BME280;41730;51.960;20.158;2023-07-13T05:18:39;99808.71;;;22.36;69.81
55801;BME280;41730;51.960;20.158;2023-07-13T05:21:12;99808.79;;;22.37;69.83
55801;BME280;41730;51.960;20.158;2023-07-13T05:23:44;99811.06;;;22.44;69.80
55801;BME280;41730;51.960;20.158;2023-07-13T05:26:16;99809.30;;;22.51;69.67
55801;BME280;41730;51.960;20.158;2023-07-13T05:28:48;99816.41;;;22.53;69.64
55801;BME280;41730;51.960;20.158;2023-07-13T05:31:19;99819.38;;;22.53;69.83
55801;BME280;41730;51.960;20.158;2023-07-13T05:33:51;99822.52;;;22.65;69.65
55801;BME280;41730;51.960;20.158;2023-07-13T05:36:23;99821.59;;;22.79;69.35
55801;BME280;41730;51.960;20.158;2023-07-13T05:38:54;99812.66;;;22.86;69.23
55801;BME280;41730;51.960;20.158;2023-07-13T05:41:26;99803.61;;;22.91;69.23
55801;BME280;41730;51.960;20.158;2023-07-13T05:43:58;99793.58;;;22.97;69.11
55801;BME280;41730;51.960;20.158;2023-07-13T05:46:29;99793.41;;;22.89;69.41
55801;BME280;41730;51.960;20.158;2023-07-13T05:49:02;99799.97;;;22.80;70.01
55801;BME280;41730;51.960;20.158;2023-07-13T05:51:34;99807.34;;;22.75;70.30
55801;BME280;41730;51.960;20.158;2023-07-13T05:54:06;99806.05;;;22.96;70.02
55801;BME280;41730;51.960;20.158;2023-07-13T05:56:38;99810.58;;;23.31;69.49
55801;BME280;41730;51.960;20.158;2023-07-13T05:59:09;99814.30;;;23.69;69.07
55801;BME280;41730;51.960;20.158;2023-07-13T06:01:42;99817.30;;;24.16;68.47
55801;BME280;41730;51.960;20.158;2023-07-13T06:04:14;99820.72;;;24.66;67.30
55801;BME280;41730;51.960;20.158;2023-07-13T06:06:45;99820.55;;;25.07;66.36
55801;BME280;41730;51.960;20.158;2023-07-13T06:09:17;99823.91;;;25.41;65.45
55801;BME280;41730;51.960;20.158;2023-07-13T06:11:49;99812.27;;;25.75;64.96
55801;BME280;41730;51.960;20.158;2023-07-13T06:14:21;99813.71;;;26.09;64.27
55801;BME280;41730;51.960;20.158;2023-07-13T06:16:52;99816.79;;;26.31;63.61
55801;BME280;41730;51.960;20.158;2023-07-13T06:19:24;99816.02;;;26.47;63.05
55801;BME280;41730;51.960;20.158;2023-07-13T06:21:56;99815.29;;;26.61;62.68
55801;BME280;41730;51.960;20.158;2023-07-13T06:24:28;99818.96;;;26.73;62.28
55801;BME280;41730;51.960;20.158;2023-07-13T06:27:01;99815.92;;;26.98;61.56
55801;BME280;41730;51.960;20.158;2023-07-13T06:29:33;99807.88;;;27.23;60.87
55801;BME280;41730;51.960;20.158;2023-07-13T06:32:06;99806.04;;;27.33;60.65
55801;BME280;41730;51.960;20.158;2023-07-13T06:34:38;99806.23;;;27.39;60.44
55801;BME280;41730;51.960;20.158;2023-07-13T06:37:12;99805.73;;;27.43;60.33
55801;BME280;41730;51.960;20.158;2023-07-13T06:39:44;99812.58;;;27.49;59.91
55801;BME280;41730;51.960;20.158;2023-07-13T06:42:18;99817.77;;;27.53;59.73
55801;BME280;41730;51.960;20.158;2023-07-13T06:44:51;99814.66;;;27.54;59.51
55801;BME280;41730;51.960;20.158;2023-07-13T06:47:23;99813.83;;;27.64;59.07
55801;BME280;41730;51.960;20.158;2023-07-13T06:49:55;99811.35;;;27.65;58.51
55801;BME280;41730;51.960;20.158;2023-07-13T06:52:27;99809.00;;;27.75;58.16
55801;BME280;41730;51.960;20.158;2023-07-13T06:54:58;99798.91;;;27.82;58.12
55801;BME280;41730;51.960;20.158;2023-07-13T06:57:30;99795.42;;;27.88;57.62
55801;BME280;41730;51.960;20.158;2023-07-13T07:00:02;99792.46;;;27.98;57.56
55801;BME280;41730;51.960;20.158;2023-07-13T07:02:33;99794.33;;;28.00;57.22
55801;BME280;41730;51.960;20.158;2023-07-13T07:05:06;99789.98;;;27.85;57.65
55801;BME280;41730;51.960;20.158;2023-07-13T07:07:38;99792.94;;;27.97;57.33
55801;BME280;41730;51.960;20.158;2023-07-13T07:10:10;99792.42;;;28.18;56.67
55801;BME280;41730;51.960;20.158;2023-07-13T07:12:42;99794.03;;;28.22;56.27
55801;BME280;41730;51.960;20.158;2023-07-13T07:15:15;99796.71;;;28.15;56.11
55801;BME280;41730;51.960;20.158;2023-07-13T07:17:47;99795.23;;;28.17;55.72
55801;BME280;41730;51.960;20.158;2023-07-13T07:20:19;99793.14;;;28.14;55.28
55801;BME280;41730;51.960;20.158;2023-07-13T07:22:52;99796.36;;;28.13;55.15
55801;BME280;41730;51.960;20.158;2023-07-13T07:25:24;99792.23;;;28.16;55.01
55801;BME280;41730;51.960;20.158;2023-07-13T07:27:55;99792.62;;;28.20;54.87
55801;BME280;41730;51.960;20.158;2023-07-13T07:30:30;99797.06;;;28.26;54.91
55801;BME280;41730;51.960;20.158;2023-07-13T07:33:04;99794.98;;;28.39;54.44
55801;BME280;41730;51.960;20.158;2023-07-13T07:35:36;99797.96;;;28.52;53.55
55801;BME280;41730;51.960;20.158;2023-07-13T07:38:28;99798.55;;;28.62;53.17
55801;BME280;41730;51.960;20.158;2023-07-13T07:41:00;99798.71;;;28.69;53.24
55801;BME280;41730;51.960;20.158;2023-07-13T07:43:35;99800.22;;;28.68;53.40
55801;BME280;41730;51.960;20.158;2023-07-13T07:46:07;99795.77;;;28.66;53.67
55801;BME280;41730;51.960;20.158;2023-07-13T07:48:39;99794.48;;;28.81;53.38
55801;BME280;41730;51.960;20.158;2023-07-13T07:51:11;99793.54;;;28.91;52.63
55801;BME280;41730;51.960;20.158;2023-07-13T07:53:43;99795.63;;;28.88;52.60
55801;BME280;41730;51.960;20.158;2023-07-13T07:56:14;99800.39;;;28.99;52.44
55801;BME280;41730;51.960;20.158;2023-07-13T07:58:50;99806.23;;;29.10;52.03
55801;BME280;41730;51.960;20.158;2023-07-13T08:01:25;99808.60;;;29.22;51.94
55801;BME280;41730;51.960;20.158;2023-07-13T08:04:00;99811.69;;;29.21;51.52
55801;BME280;41730;51.960;20.158;2023-07-13T08:06:35;99810.85;;;29.14;51.69
55801;BME280;41730;51.960;20.158;2023-07-13T08:09:10;99804.96;;;29.03;51.65
55801;BME280;41730;51.960;20.158;2023-07-13T08:11:41;99810.69;;;29.02;52.13
55801;BME280;41730;51.960;20.158;2023-07-13T08:14:16;99811.27;;;28.93;52.33
55801;BME280;41730;51.960;20.158;2023-07-13T08:16:47;99814.48;;;29.03;52.19
55801;BME280;41730;51.960;20.158;2023-07-13T08:19:19;99815.83;;;29.06;52.44
55801;BME280;41730;51.960;20.158;2023-07-13T08:21:51;99813.89;;;29.15;52.23
55801;BME280;41730;51.960;20.158;2023-07-13T08:24:25;99819.09;;;29.21;52.53
55801;BME280;41730;51.960;20.158;2023-07-13T08:26:57;99823.27;;;29.23;52.40
55801;BME280;41730;51.960;20.158;2023-07-13T08:29:29;99824.59;;;29.30;52.23
55801;BME280;41730;51.960;20.158;2023-07-13T08:32:02;99833.14;;;29.31;52.13
55801;BME280;41730;51.960;20.158;2023-07-13T08:34:34;99837.45;;;29.21;52.58
55801;BME280;41730;51.960;20.158;2023-07-13T08:37:06;99838.17;;;29.16;52.42
55801;BME280;41730;51.960;20.158;2023-07-13T08:39:39;99840.83;;;29.17;52.27
55801;BME280;41730;51.960;20.158;2023-07-13T08:42:16;99840.38;;;29.15;52.16
55801;BME280;41730;51.960;20.158;2023-07-13T08:45:00;99839.73;;;28.97;52.32
55801;BME280;41730;51.960;20.158;2023-07-13T08:47:38;99840.77;;;28.94;52.17
55801;BME280;41730;51.960;20.158;2023-07-13T08:50:16;99835.35;;;28.88;52.33
55801;BME280;41730;51.960;20.158;2023-07-13T08:52:49;99834.81;;;28.87;52.41
55801;BME280;41730;51.960;20.158;2023-07-13T08:55:24;99837.06;;;28.79;52.52
55801;BME280;41730;51.960;20.158;2023-07-13T08:58:02;99837.64;;;28.76;52.84
55801;BME280;41730;51.960;20.158;2023-07-13T09:00:48;99832.21;;;28.76;52.87
55801;BME280;41730;51.960;20.158;2023-07-13T09:03:30;99835.98;;;28.85;52.87
55801;BME280;41730;51.960;20.158;2023-07-13T09:06:04;99836.55;;;28.77;52.48
55801;BME280;41730;51.960;20.158;2023-07-13T09:08:51;99835.68;;;28.64;52.95
55801;BME280;41730;51.960;20.158;2023-07-13T09:11:36;99839.14;;;28.54;53.25
55801;BME280;41730;51.960;20.158;2023-07-13T09:14:30;99842.42;;;28.58;52.84
55801;BME280;41730;51.960;20.158;2023-07-13T09:17:19;99843.38;;;28.50;53.25
55801;BME280;41730;51.960;20.158;2023-07-13T09:19:57;99846.40;;;28.37;53.82
55801;BME280;41730;51.960;20.158;2023-07-13T09:22:35;99840.35;;;28.30;54.63
55801;BME280;41730;51.960;20.158;2023-07-13T09:25:23;99836.89;;;28.39;54.89
55801;BME280;41730;51.960;20.158;2023-07-13T09:27:58;99836.12;;;28.49;54.78
55801;BME280;41730;51.960;20.158;2023-07-13T09:30:36;99834.17;;;28.50;54.78
55801;BME280;41730;51.960;20.158;2023-07-13T09:33:10;99833.45;;;28.53;54.58
55801;BME280;41730;51.960;20.158;2023-07-13T09:35:42;99834.36;;;28.47;54.89
55801;BME280;41730;51.960;20.158;2023-07-13T09:38:15;99834.27;;;28.37;54.84
55801;BME280;41730;51.960;20.158;2023-07-13T09:40:57;99836.25;;;28.34;54.79
55801;BME280;41730;51.960;20.158;2023-07-13T09:43:33;99833.70;;;28.14;54.99
55801;BME280;41730;51.960;20.158;2023-07-13T09:46:07;99834.59;;;27.99;55.39
55801;BME280;41730;51.960;20.158;2023-07-13T09:48:51;99838.27;;;27.97;55.28
55801;BME280;41730;51.960;20.158;2023-07-13T09:51:23;99838.88;;;27.81;55.34
55801;BME280;41730;51.960;20.158;2023-07-13T09:53:55;99840.09;;;27.76;55.31
55801;BME280;41730;51.960;20.158;2023-07-13T09:56:28;99838.75;;;27.84;55.07
55801;BME280;41730;51.960;20.158;2023-07-13T09:59:00;99840.44;;;27.77;55.27
55801;BME280;41730;51.960;20.158;2023-07-13T10:01:37;99836.73;;;27.67;55.32
55801;BME280;41730;51.960;20.158;2023-07-13T10:04:16;99834.74;;;27.72;55.20
55801;BME280;41730;51.960;20.158;2023-07-13T10:06:49;99834.60;;;27.74;55.14
55801;BME280;41730;51.960;20.158;2023-07-13T10:09:56;99840.64;;;27.54;55.60
55801;BME280;41730;51.960;20.158;2023-07-13T10:12:38;99838.58;;;27.35;56.24
55801;BME280;41730;51.960;20.158;2023-07-13T10:15:17;99834.46;;;27.13;57.00
55801;BME280;41730;51.960;20.158;2023-07-13T10:17:54;99831.21;;;27.15;56.29
55801;BME280;41730;51.960;20.158;2023-07-13T10:20:29;99826.30;;;27.15;55.67
55801;BME280;41730;51.960;20.158;2023-07-13T10:23:04;99825.73;;;27.17;55.28
55801;BME280;41730;51.960;20.158;2023-07-13T10:25:41;99823.55;;;27.11;54.84
55801;BME280;41730;51.960;20.158;2023-07-13T10:28:24;99824.88;;;27.11;54.57
55801;BME280;41730;51.960;20.158;2023-07-13T10:30:58;99821.34;;;27.09;53.79
55801;BME280;41730;51.960;20.158;2023-07-13T10:33:31;99820.38;;;26.99;52.50
55801;BME280;41730;51.960;20.158;2023-07-13T10:36:07;99823.40;;;26.90;52.30
55801;BME280;41730;51.960;20.158;2023-07-13T10:38:48;99821.89;;;26.90;52.50
55801;BME280;41730;51.960;20.158;2023-07-13T10:41:25;99821.39;;;26.93;52.95
55801;BME280;41730;51.960;20.158;2023-07-13T10:43:59;99822.32;;;26.89;53.85
55801;BME280;41730;51.960;20.158;2023-07-13T10:46:31;99817.11;;;26.85;54.61
55801;BME280;41730;51.960;20.158;2023-07-13T10:49:06;99821.13;;;26.80;55.03
55801;BME280;41730;51.960;20.158;2023-07-13T10:51:39;99825.52;;;26.87;55.29
55801;BME280;41730;51.960;20.158;2023-07-13T10:54:21;99827.58;;;26.91;55.47
55801;BME280;41730;51.960;20.158;2023-07-13T10:57:06;99831.96;;;26.80;55.97
55801;BME280;41730;51.960;20.158;2023-07-13T10:59:39;99833.70;;;26.74;56.33
55801;BME280;41730;51.960;20.158;2023-07-13T11:02:22;99832.63;;;26.72;56.60
55801;BME280;41730;51.960;20.158;2023-07-13T11:04:55;99836.23;;;26.74;56.73
55801;BME280;41730;51.960;20.158;2023-07-13T11:07:30;99838.87;;;26.77;56.78
55801;BME280;41730;51.960;20.158;2023-07-13T11:10:09;99845.33;;;26.79;56.76
55801;BME280;41730;51.960;20.158;2023-07-13T11:12:59;99851.04;;;26.78;56.91
55801;BME280;41730;51.960;20.158;2023-07-13T11:15:43;99855.52;;;26.75;56.97
55801;BME280;41730;51.960;20.158;2023-07-13T11:18:24;99853.20;;;26.73;56.90
55801;BME280;41730;51.960;20.158;2023-07-13T11:21:14;99852.60;;;26.75;56.54
55801;BME280;41730;51.960;20.158;2023-07-13T11:24:14;99857.46;;;26.75;56.35
55801;BME280;41730;51.960;20.158;2023-07-13T11:26:53;99858.63;;;26.80;56.10
55801;BME280;41730;51.960;20.158;2023-07-13T11:29:36;99864.26;;;26.75;56.09
55801;BME280;41730;51.960;20.158;2023-07-13T11:32:25;99867.51;;;26.70;56.24
55801;BME280;41730;51.960;20.158;2023-07-13T11:35:01;99877.00;;;26.61;56.37
55801;BME280;41730;51.960;20.158;2023-07-13T11:37:33;99878.36;;;26.62;56.61
55801;BME280;41730;51.960;20.158;2023-07-13T11:40:11;99880.08;;;26.68;56.58
55801;BME280;41730;51.960;20.158;2023-07-13T11:42:44;99880.46;;;26.68;56.52
55801;BME280;41730;51.960;20.158;2023-07-13T11:45:22;99884.05;;;26.72;56.66
55801;BME280;41730;51.960;20.158;2023-07-13T11:48:22;99883.11;;;26.71;56.87
55801;BME280;41730;51.960;20.158;2023-07-13T11:51:01;99887.98;;;26.66;57.30
55801;BME280;41730;51.960;20.158;2023-07-13T11:53:39;99893.48;;;26.63;57.40
55801;BME280;41730;51.960;20.158;2023-07-13T11:56:13;99892.13;;;26.60;57.31
55801;BME280;41730;51.960;20.158;2023-07-13T11:58:47;99895.20;;;26.57;57.18
55801;BME280;41730;51.960;20.158;2023-07-13T12:01:23;99892.86;;;26.64;56.96
55801;BME280;41730;51.960;20.158;2023-07-13T12:03:57;99901.57;;;26.74;56.49
55801;BME280;41730;51.960;20.158;2023-07-13T12:06:30;99900.73;;;26.81;56.13
55801;BME280;41730;51.960;20.158;2023-07-13T12:09:10;99897.25;;;26.89;55.72
55801;BME280;41730;51.960;20.158;2023-07-13T12:11:46;99896.23;;;26.95;55.27
55801;BME280;41730;51.960;20.158;2023-07-13T12:14:18;99898.87;;;26.94;55.25
55801;BME280;41730;51.960;20.158;2023-07-13T12:16:50;99901.91;;;26.90;55.26
55801;BME280;41730;51.960;20.158;2023-07-13T12:19:24;99904.36;;;26.79;55.36
55801;BME280;41730;51.960;20.158;2023-07-13T12:21:58;99900.27;;;26.74;55.20
55801;BME280;41730;51.960;20.158;2023-07-13T12:24:30;99905.33;;;26.82;54.73
55801;BME280;41730;51.960;20.158;2023-07-13T12:27:05;99908.91;;;26.83;54.76
55801;BME280;41730;51.960;20.158;2023-07-13T12:29:37;99911.06;;;26.71;54.90
55801;BME280;41730;51.960;20.158;2023-07-13T12:32:19;99915.65;;;26.71;54.92
55801;BME280;41730;51.960;20.158;2023-07-13T12:34:57;99920.53;;;26.78;54.90
55801;BME280;41730;51.960;20.158;2023-07-13T12:37:43;99917.52;;;26.75;55.09
55801;BME280;41730;51.960;20.158;2023-07-13T12:40:20;99913.15;;;26.73;55.12
55801;BME280;41730;51.960;20.158;2023-07-13T12:42:53;99907.48;;;26.73;54.95
55801;BME280;41730;51.960;20.158;2023-07-13T12:45:27;99905.69;;;26.72;54.91
55801;BME280;41730;51.960;20.158;2023-07-13T12:48:05;99906.58;;;26.65;55.09
55801;BME280;41730;51.960;20.158;2023-07-13T12:50:42;99911.11;;;26.66;55.17
55801;BME280;41730;51.960;20.158;2023-07-13T12:53:16;99908.41;;;26.63;54.98
55801;BME280;41730;51.960;20.158;2023-07-13T12:55:52;99912.92;;;26.56;54.83
55801;BME280;41730;51.960;20.158;2023-07-13T12:58:27;99915.11;;;26.63;54.49
55801;BME280;41730;51.960;20.158;2023-07-13T13:01:01;99914.17;;;26.59;54.28
55801;BME280;41730;51.960;20.158;2023-07-13T13:03:32;99913.98;;;26.53;54.31
55801;BME280;41730;51.960;20.158;2023-07-13T13:06:06;99911.96;;;26.44;54.32
55801;BME280;41730;51.960;20.158;2023-07-13T13:08:37;99918.05;;;26.27;54.27
55801;BME280;41730;51.960;20.158;2023-07-13T13:11:11;99917.27;;;26.12;54.61
55801;BME280;41730;51.960;20.158;2023-07-13T13:13:48;99920.71;;;26.11;54.59
55801;BME280;41730;51.960;20.158;2023-07-13T13:16:26;99926.19;;;26.11;54.65
55801;BME280;41730;51.960;20.158;2023-07-13T13:19:10;99927.81;;;26.13;54.60
55801;BME280;41730;51.960;20.158;2023-07-13T13:21:44;99930.18;;;26.11;54.56
55801;BME280;41730;51.960;20.158;2023-07-13T13:24:18;99921.92;;;26.13;54.48
55801;BME280;41730;51.960;20.158;2023-07-13T13:26:51;99915.83;;;26.18;54.37
55801;BME280;41730;51.960;20.158;2023-07-13T13:29:25;99906.85;;;26.19;54.31
55801;BME280;41730;51.960;20.158;2023-07-13T13:31:57;99905.13;;;26.11;54.40